Clyo, Georgia
Current Conditions -  °F | °C
As of 12:35 PM on Saturday 25 Oct 2014 (Local Time) from KJYL Reporting Station
Clear Clear  
Wind Chill: 76°   Ceiling: Unl
Heat Index: 78°   Visibility: 10mi
Dew Point: 54°   Wind: 3mph
Humidity: 46%   Direction: 50°NE
Pressure: 30.04"   Gusts: NA
Location:  32.48°N, 81.27°W
Report Text: KJYL 251635Z AUTO 05003KT 10SM CLR 25/12 A3004 RMK AO2 T02450123
Loading
Personal Weather Stations






























Interactive Weather Map
Tropical Storm Tracking
New forecast layout! Learn more

10-Day Weather Forecast

Advertisements
Track Severe Weather on mobile